الصفحة الرئيسية
METAR-TAF:

METAR-TAF

مطار :

Yuma, أريزونا, الولايات المتحدة

دائرة عرض: 32-37-25N, خط طول: 113-45-50W, ارتفاع: 64 متر

مراقبة الطقس الحالي

تاريخ ووقت الإصدار 41 دقيقة قبل الساعة 06:57UTC
ريح 11 عقدة من الغرب/الشمال الغربي
درجة الحرارة 15°درجة مئوية
الرطوبة 48%
ضغط 1016 hPa
الرؤية: 16.1 كم
سماء صافية

METAR: KNYL 210657Z AUTO 30011KT 10SM CLR 15/04 A3001 RMK AO2 SLP161 T01500044 402390150 $

زمن: 00:38 (07:38 UTC)

توقعات

التوقعات صالحة من21 الساعة 03 UTC إلى 22 الساعة 03 UTC
ريح 10 عقدة من الغرب/الشمال الغربي
الرؤية 10 كم أو أكثر
غيوم مفككة على ارتفاع 12000 قدم
من 21 الساعة 0800 UTC
ريح 10 عقدة من الغرب/الشمال الغربي تتزايد حتى 23 عقدة
الرؤية 10 كم أو أكثر
غيوم قليلة على ارتفاع 10000 قدم
أصبح
من 21 الساعة 21 UTC إلى 21 الساعة 23 UTC
ريح 10 عقدة من الغرب
الرؤية: 2114 متر
غيوم مفككة على ارتفاع 10000 قدم

TAF: KNYL 2103/2203 30010KT 9999 BKN120 QNH2991INS FM210800 29010G23KT 9999 FEW100 QNH2997INS BECMG 2121/2123 27010KT 9999 BKN100 QNH2994INS AUTOMATED SENSOR METWATCH 2103 TIL 2114 T14/2113Z T22/2223Z

أرصاد الطقس والتوقعات من أكثر من 4000 مطار (تقارير الطقس للمطار METAR والتنبؤ بالطقس بالمطارTAF).

المحطات المتاحة هي النقط الصفراء والحمراء على الخريطة.

حرك المؤشر فوق النقطة لمعرفة اسم المحطة.

ثم انقر لمعرفة أرصاد وتوقعات الطقس.

لتغيير الخارطة: اضغط على الأزرار الخضراء مع رمز الصليب الأسود للتكبير. على الزر الأخضر مع شرطة للتصغير، أو على الأسهم الخضراء للخرائط المجاورة.


METAR-TAF: